East Olympia, Washington
Current Conditions -  °F | °C
As of 6:54 PM on Tuesday 21 Oct 2014 (Local Time) from KOLM Reporting Station
Overcast Overcast  
Wind Chill: 58°   Ceiling: 4700
Heat Index: 58°   Visibility: 10mi
Dew Point: 49°   Wind: 18mph
Humidity: 72%   Direction: 170°S
Pressure: 29.85"   Gusts: 28mph
Location:  46.97°N, 122.84°W
Report Text: KOLM 220154Z 17016G24KT 10SM BKN047 OVC060 14/09 A2985 RMK AO2 SLP109 T01440094
Loading
Personal Weather Stations






























Interactive Weather Map
Tropical Storm Tracking
New forecast layout! Learn more

10-Day Weather Forecast

Advertisements
Track Severe Weather on mobile